Time;durP1;ratioP1;P1;durP2;ratioP2;P2;SDS_P1;SDS_P2;PMS_P1;PMS_P2;Temp;Humidity;BMP_temperature;BMP_pressure;BME280_temperature;BME280_humidity;BME280_pressure;Samples;Min_cycle;Max_cycle;Signal;HPM_P1;HPM_P2
2023/11/07 00:02:24;;;;;;;;;;;;;;;15.43;nan;100582.63;5065449;28;20459;-88
2023/11/07 00:04:51;;;;;;;;;;;;;;;15.41;nan;100579.41;5072483;28;20296;-89
2023/11/07 00:07:16;;;;;;;;;;;;;;;15.42;nan;100586.41;5065226;28;19940;-89
2023/11/07 00:09:42;;;;;;;;;;;;;;;15.46;nan;100580.47;5065542;28;19916;-89
2023/11/07 00:12:07;;;;;;;;;;;;;;;15.49;nan;100588.00;5063139;28;19920;-88
2023/11/07 00:14:32;;;;;;;;;;;;;;;15.48;nan;100589.09;5063128;28;19917;-88
2023/11/07 00:16:58;;;;;;;;;;;;;;;15.50;nan;100586.91;5066944;28;19917;-89
2023/11/07 00:19:24;;;;;;;;;;;;;;;15.60;nan;100593.03;5065498;28;19920;-86
2023/11/07 00:21:49;;;;;;;;;;;;;;;15.62;nan;100598.16;5061942;28;20498;-88
2023/11/07 00:24:15;;;;;;;;;;;;;;;15.64;nan;100596.00;5066163;28;19927;-89
2023/11/07 00:26:40;;;;;;;;;;;;;;;15.69;nan;100601.31;5057928;28;19952;-88
2023/11/07 00:29:07;;;;;;;;;;;;;;;15.71;nan;100609.94;5065521;28;19925;-89
2023/11/07 00:31:32;;;;;;;;;;;;;;;15.78;nan;100602.31;5070152;28;19920;-88
2023/11/07 00:33:57;;;;;;;;;;;;;;;15.84;nan;100614.69;5065636;28;19917;-88
2023/11/07 00:36:23;;;;;;;;;;;;;;;15.83;nan;100617.69;5068111;28;19919;-88
2023/11/07 00:38:49;;;;;;;;;;;;;;;15.89;nan;100616.53;5063604;28;19937;-89
2023/11/07 00:41:14;;;;;;;;;;;;;;;15.92;nan;100627.56;5080416;28;19924;-89
2023/11/07 00:43:39;;;;;;;;;;;;;;;15.88;nan;100634.63;5069996;28;19960;-89
2023/11/07 00:46:05;;;;;;;;;;;;;;;15.89;nan;100638.13;5067166;28;19999;-88
2023/11/07 00:48:30;;;;;;;;;;;;;;;15.95;nan;100637.78;5069529;28;20046;-87
2023/11/07 00:50:55;;;;;;;;;;;;;;;16.00;nan;100629.66;5062524;28;19967;-88
2023/11/07 00:53:21;;;;;;;;;;;;;;;15.99;nan;100635.34;5065580;28;19961;-89
2023/11/07 00:55:46;;;;;;;;;;;;;;;16.01;nan;100641.25;5059160;28;19916;-89
2023/11/07 00:58:11;;;;;;;;;;;;;;;16.01;nan;100639.38;5061354;28;20359;-89
2023/11/07 01:00:37;;;;;;;;;;;;;;;16.05;nan;100642.28;5062603;28;19923;-89
2023/11/07 01:03:02;;;;;;;;;;;;;;;16.05;nan;100636.88;5068445;28;19920;-89
2023/11/07 01:05:28;;;;;;;;;;;;;;;16.12;nan;100641.94;5063619;28;19979;-89
2023/11/07 01:07:53;;;;;;;;;;;;;;;16.14;nan;100642.44;5064826;28;19916;-90
2023/11/07 01:10:18;;;;;;;;;;;;;;;16.19;nan;100647.81;5069355;28;20327;-90
2023/11/07 01:12:44;;;;;;;;;;;;;;;16.21;nan;100648.34;5062745;28;20440;-88
2023/11/07 01:15:10;;;;;;;;;;;;;;;16.23;nan;100651.56;5067897;28;19917;-88
2023/11/07 01:17:35;;;;;;;;;;;;;;;16.21;nan;100656.44;5073721;28;19925;-90
2023/11/07 01:20:00;;;;;;;;;;;;;;;16.22;nan;100658.06;5067136;28;19924;-89
2023/11/07 01:22:26;;;;;;;;;;;;;;;16.26;nan;100661.78;5063410;28;19965;-89
2023/11/07 01:24:51;;;;;;;;;;;;;;;16.28;nan;100668.50;5067475;28;19925;-87
2023/11/07 01:27:17;;;;;;;;;;;;;;;16.29;nan;100663.91;5066597;28;19921;-89
2023/11/07 01:29:42;;;;;;;;;;;;;;;16.29;nan;100655.78;5062044;28;20300;-89
2023/11/07 01:32:07;;;;;;;;;;;;;;;16.28;nan;100663.09;5058824;28;19920;-88
2023/11/07 01:34:33;;;;;;;;;;;;;;;16.20;nan;100665.66;5066115;28;20003;-89
2023/11/07 01:36:59;;;;;;;;;;;;;;;16.23;nan;100660.47;5068601;28;19924;-90
2023/11/07 01:39:24;;;;;;;;;;;;;;;16.29;nan;100675.53;5066691;28;20826;-87
2023/11/07 01:41:50;;;;;;;;;;;;;;;16.23;nan;100681.28;5066629;28;19943;-89
2023/11/07 01:44:15;;;;;;;;;;;;;;;16.20;nan;100676.47;5062190;28;19923;-89
2023/11/07 01:46:40;;;;;;;;;;;;;;;16.14;nan;100677.59;5060006;28;19920;-89
2023/11/07 01:49:08;;;;;;;;;;;;;;;16.13;nan;100675.97;5067125;28;20015;-88
2023/11/07 01:51:34;;;;;;;;;;;;;;;16.13;nan;100675.97;5063584;28;19963;-89
2023/11/07 01:54:00;;;;;;;;;;;;;;;16.12;nan;100686.00;5059637;28;19951;-87
2023/11/07 01:56:27;;;;;;;;;;;;;;;16.10;nan;100684.66;5058677;28;20394;-89
2023/11/07 01:58:54;;;;;;;;;;;;;;;16.13;nan;100686.78;5067772;28;20704;-88
2023/11/07 02:01:19;;;;;;;;;;;;;;;16.11;nan;100681.66;5070095;28;19924;-89
2023/11/07 02:03:45;;;;;;;;;;;;;;;16.12;nan;100683.28;5063097;28;19931;-89
2023/11/07 02:06:10;;;;;;;;;;;;;;;16.15;nan;100684.59;5063832;28;19970;-89
2023/11/07 02:08:36;;;;;;;;;;;;;;;16.14;nan;100688.41;5065571;28;19978;-89
2023/11/07 02:11:01;;;;;;;;;;;;;;;16.18;nan;100689.47;5070506;28;19917;-89
2023/11/07 02:13:26;;;;;;;;;;;;;;;16.20;nan;100700.78;5063584;28;19960;-89
2023/11/07 02:15:53;;;;;;;;;;;;;;;16.20;nan;100693.47;5057704;28;20047;-89
2023/11/07 02:18:19;;;;;;;;;;;;;;;16.18;nan;100700.28;5060102;28;19971;-89
2023/11/07 02:20:45;;;;;;;;;;;;;;;16.18;nan;100700.28;5072037;28;20362;-89
2023/11/07 02:23:23;;;;;;;;;;;;;;;16.18;nan;100701.09;5063058;28;20000;-90
2023/11/07 02:25:51;;;;;;;;;;;;;;;16.20;nan;100692.69;5074158;28;19916;-90
2023/11/07 02:28:17;;;;;;;;;;;;;;;16.20;nan;100693.47;5066044;28;19978;-89
2023/11/07 02:30:43;;;;;;;;;;;;;;;16.20;nan;100704.28;5064870;28;19916;-89
2023/11/07 02:33:08;;;;;;;;;;;;;;;16.23;nan;100697.50;5068346;28;20380;-89
2023/11/07 02:35:34;;;;;;;;;;;;;;;16.27;nan;100710.16;5070404;28;19921;-88
2023/11/07 02:37:59;;;;;;;;;;;;;;;16.22;nan;100712.13;5067861;28;19923;-89
2023/11/07 02:40:25;;;;;;;;;;;;;;;16.16;nan;100713.28;5070768;28;20319;-88
2023/11/07 02:42:50;;;;;;;;;;;;;;;16.12;nan;100712.22;5070122;28;20386;-90
2023/11/07 02:45:16;;;;;;;;;;;;;;;16.11;nan;100722.22;5068470;28;19924;-88
2023/11/07 02:47:41;;;;;;;;;;;;;;;16.08;nan;100722.78;5075145;28;19923;-89
2023/11/07 02:50:07;;;;;;;;;;;;;;;16.05;nan;100725.25;5070149;28;20019;-88
2023/11/07 02:52:33;;;;;;;;;;;;;;;16.01;nan;100727.75;5071979;28;19920;-89
2023/11/07 02:55:00;;;;;;;;;;;;;;;15.98;nan;100728.31;5078415;28;19936;-88
2023/11/07 02:57:25;;;;;;;;;;;;;;;15.92;nan;100735.63;5070080;28;19927;-88
2023/11/07 02:59:51;;;;;;;;;;;;;;;15.91;nan;100728.63;5069144;28;19916;-88
2023/11/07 03:02:17;;;;;;;;;;;;;;;15.90;nan;100721.59;5070009;28;20149;-88
2023/11/07 03:04:43;;;;;;;;;;;;;;;15.84;nan;100725.44;5070057;28;19923;-89
2023/11/07 03:07:08;;;;;;;;;;;;;;;15.76;nan;100727.94;5069529;28;19921;-88
2023/11/07 03:09:35;;;;;;;;;;;;;;;15.71;nan;100732.31;5073358;28;20501;-87
2023/11/07 03:12:01;;;;;;;;;;;;;;;15.65;nan;100722.63;5069025;28;19964;-89
2023/11/07 03:14:26;;;;;;;;;;;;;;;15.64;nan;100721.03;5067955;28;19959;-88
2023/11/07 03:16:51;;;;;;;;;;;;;;;15.65;nan;100721.84;5062803;28;19920;-89
2023/11/07 03:19:17;;;;;;;;;;;;;;;15.65;nan;100724.53;5069487;28;19931;-89
2023/11/07 03:21:42;;;;;;;;;;;;;;;15.61;nan;100723.47;5065582;28;19999;-89
2023/11/07 03:24:08;;;;;;;;;;;;;;;15.56;nan;100736.97;5070353;28;19998;-90
2023/11/07 03:26:34;;;;;;;;;;;;;;;15.50;nan;100728.13;5068818;28;19969;-89
2023/11/07 03:28:59;;;;;;;;;;;;;;;15.44;nan;100723.84;5074641;28;19923;-89
2023/11/07 03:31:24;;;;;;;;;;;;;;;15.39;nan;100738.16;5065762;28;20012;-88
2023/11/07 03:33:50;;;;;;;;;;;;;;;15.36;nan;100743.31;5064925;28;20003;-89
2023/11/07 03:36:15;;;;;;;;;;;;;;;15.35;nan;100742.53;5065760;28;19923;-90
2023/11/07 03:38:42;;;;;;;;;;;;;;;15.34;nan;100743.59;5067207;28;19962;-88
2023/11/07 03:41:08;;;;;;;;;;;;;;;15.29;nan;100746.34;5065934;28;19917;-89
2023/11/07 03:43:34;;;;;;;;;;;;;;;15.21;nan;100746.91;5069565;28;19923;-89
2023/11/07 03:45:59;;;;;;;;;;;;;;;15.21;nan;100756.91;5065409;28;19917;-89
2023/11/07 03:48:25;;;;;;;;;;;;;;;15.20;nan;100749.91;5067470;28;19935;-89
2023/11/07 03:50:53;;;;;;;;;;;;;;;15.18;nan;100742.09;5073464;28;20379;-89
2023/11/07 03:53:18;;;;;;;;;;;;;;;15.20;nan;100744.50;5068079;28;19936;-89
2023/11/07 03:55:44;;;;;;;;;;;;;;;15.11;nan;100747.78;5071919;28;19916;-89
2023/11/07 03:58:09;;;;;;;;;;;;;;;15.09;nan;100755.38;5067939;28;19917;-88
2023/11/07 04:00:34;;;;;;;;;;;;;;;15.07;nan;100756.69;5074129;28;19916;-89
2023/11/07 04:03:00;;;;;;;;;;;;;;;15.01;nan;100761.31;5069278;28;19920;-89
2023/11/07 04:05:25;;;;;;;;;;;;;;;14.96;nan;100761.34;5069914;28;19912;-89
2023/11/07 04:07:51;;;;;;;;;;;;;;;14.95;nan;100765.13;5067194;28;19916;-90
2023/11/07 04:10:16;;;;;;;;;;;;;;;14.95;nan;100759.75;5070242;28;19924;-90
2023/11/07 04:12:41;;;;;;;;;;;;;;;14.92;nan;100762.19;5071093;28;21351;-89
2023/11/07 04:15:09;;;;;;;;;;;;;;;14.90;nan;100761.63;5065319;28;20264;-90
2023/11/07 04:17:35;;;;;;;;;;;;;;;14.88;nan;100766.50;5065019;28;19924;-89
2023/11/07 04:20:00;;;;;;;;;;;;;;;14.89;nan;100770.81;5067554;28;19983;-90
2023/11/07 04:22:25;;;;;;;;;;;;;;;14.88;nan;100774.59;5068999;28;20396;-89
2023/11/07 04:24:51;;;;;;;;;;;;;;;14.84;nan;100768.13;5067924;28;19924;-89
2023/11/07 04:27:17;;;;;;;;;;;;;;;14.84;nan;100778.94;5072650;28;19920;-89
2023/11/07 04:29:43;;;;;;;;;;;;;;;14.90;nan;100775.13;5085438;28;20396;-90
2023/11/07 04:32:10;;;;;;;;;;;;;;;14.91;nan;100771.38;5067516;28;19927;-89
2023/11/07 04:34:35;;;;;;;;;;;;;;;14.93;nan;100777.28;5066257;28;19920;-89
2023/11/07 04:37:01;;;;;;;;;;;;;;;14.97;nan;100781.03;5065424;28;19924;-90
2023/11/07 04:39:26;;;;;;;;;;;;;;;14.98;nan;100780.78;5069821;28;19931;-90
2023/11/07 04:41:52;;;;;;;;;;;;;;;15.00;nan;100785.88;5067552;28;19928;-89
2023/11/07 04:44:20;;;;;;;;;;;;;;;15.00;nan;100783.19;5069445;28;19924;-90
2023/11/07 04:46:45;;;;;;;;;;;;;;;14.98;nan;100794.25;5064894;28;19920;-90
2023/11/07 04:49:13;;;;;;;;;;;;;;;14.97;nan;100795.34;5066690;28;19924;-90
2023/11/07 04:51:39;;;;;;;;;;;;;;;14.99;nan;100785.09;5064534;28;20376;-89
2023/11/07 04:54:04;;;;;;;;;;;;;;;14.97;nan;100789.13;5066970;28;19931;-91
2023/11/07 04:56:30;;;;;;;;;;;;;;;14.97;nan;100789.94;5068235;28;19920;-90
2023/11/07 04:58:55;;;;;;;;;;;;;;;14.95;nan;100794.81;5061236;28;20006;-90
2023/11/07 05:01:21;;;;;;;;;;;;;;;14.91;nan;100795.66;5066169;28;20748;-89
2023/11/07 05:03:48;;;;;;;;;;;;;;;14.91;nan;100790.25;5070479;28;19920;-90
2023/11/07 05:06:14;;;;;;;;;;;;;;;14.95;nan;100794.00;5071182;28;19923;-90
2023/11/07 05:08:39;;;;;;;;;;;;;;;14.97;nan;100794.53;5066100;28;19924;-90
2023/11/07 05:11:05;;;;;;;;;;;;;;;14.95;nan;100788.63;5068394;28;19916;-90
2023/11/07 05:13:31;;;;;;;;;;;;;;;14.98;nan;100796.16;5067595;28;19939;-90
2023/11/07 05:15:56;;;;;;;;;;;;;;;14.97;nan;100794.53;5067800;28;19920;-89
2023/11/07 05:18:22;;;;;;;;;;;;;;;14.99;nan;100797.75;5065870;28;19916;-89
2023/11/07 05:20:48;;;;;;;;;;;;;;;15.01;nan;100796.41;5066044;28;19949;-88
2023/11/07 05:23:13;;;;;;;;;;;;;;;15.07;nan;100797.97;5066504;28;19916;-88
2023/11/07 05:25:39;;;;;;;;;;;;;;;15.07;nan;100807.97;5064340;28;19928;-89
2023/11/07 05:28:04;;;;;;;;;;;;;;;15.13;nan;100798.78;5068768;28;19916;-89
2023/11/07 05:30:30;;;;;;;;;;;;;;;15.15;nan;100802.00;5064968;28;20011;-89
2023/11/07 05:32:56;;;;;;;;;;;;;;;15.18;nan;100804.16;5065858;28;19960;-89
2023/11/07 05:35:21;;;;;;;;;;;;;;;15.23;nan;100809.53;5066868;28;19924;-89
2023/11/07 05:37:48;;;;;;;;;;;;;;;15.26;nan;100811.69;5065976;28;20015;-88
2023/11/07 05:40:13;;;;;;;;;;;;;;;15.27;nan;100818.69;5065497;28;19912;-90
2023/11/07 05:42:42;;;;;;;;;;;;;;;15.25;nan;100812.75;5066398;28;19916;-87
2023/11/07 05:45:08;;;;;;;;;;;;;;;15.27;nan;100824.09;5063295;28;19916;-88
2023/11/07 05:47:33;;;;;;;;;;;;;;;15.30;nan;100826.25;5068525;28;19919;-89
2023/11/07 05:49:59;;;;;;;;;;;;;;;15.38;nan;100832.94;5063155;28;19916;-89
2023/11/07 05:52:24;;;;;;;;;;;;;;;15.40;nan;100834.28;5064156;28;19924;-89
2023/11/07 05:54:50;;;;;;;;;;;;;;;15.42;nan;100844.78;5067121;28;20452;-89
2023/11/07 05:57:19;;;;;;;;;;;;;;;15.41;nan;100843.97;5065129;28;20490;-89
2023/11/07 05:59:44;;;;;;;;;;;;;;;15.40;nan;100844.25;5064595;28;19927;-90
2023/11/07 06:02:10;;;;;;;;;;;;;;;15.36;nan;100837.81;5063597;28;19917;-89
2023/11/07 06:04:36;;;;;;;;;;;;;;;15.38;nan;100841.03;5067264;28;19920;-89
2023/11/07 06:07:01;;;;;;;;;;;;;;;15.40;nan;100852.38;5067787;28;19939;-89
2023/11/07 06:09:28;;;;;;;;;;;;;;;15.37;nan;100840.22;5065140;28;19916;-90
2023/11/07 06:11:54;;;;;;;;;;;;;;;15.34;nan;100848.88;5065437;28;19924;-89
2023/11/07 06:14:19;;;;;;;;;;;;;;;15.32;nan;100855.66;5066935;28;20000;-89
2023/11/07 06:16:45;;;;;;;;;;;;;;;15.34;nan;100851.59;5065118;28;20536;-89
2023/11/07 06:19:10;;;;;;;;;;;;;;;15.34;nan;100843.50;5061616;28;20366;-89
2023/11/07 06:21:36;;;;;;;;;;;;;;;15.29;nan;100846.22;5058685;28;20293;-88
2023/11/07 06:24:02;;;;;;;;;;;;;;;15.23;nan;100852.72;5066846;28;20467;-88
2023/11/07 06:26:27;;;;;;;;;;;;;;;15.22;nan;100856.50;5063102;28;19920;-89
2023/11/07 06:28:53;;;;;;;;;;;;;;;15.17;nan;100845.72;5064067;28;19917;-89
2023/11/07 06:31:25;;;;;;;;;;;;;;;15.16;nan;100854.91;5064353;28;20015;-89
2023/11/07 06:33:51;;;;;;;;;;;;;;;15.18;nan;100860.03;5062442;28;19920;-89
2023/11/07 06:36:16;;;;;;;;;;;;;;;15.12;nan;100867.34;5061052;28;19926;-90
2023/11/07 06:38:42;;;;;;;;;;;;;;;15.12;nan;100867.34;5065297;28;19966;-88
2023/11/07 06:41:07;;;;;;;;;;;;;;;15.06;nan;100869.22;5067302;28;20005;-88
2023/11/07 06:43:33;;;;;;;;;;;;;;;15.05;nan;100869.50;5063716;28;19927;-89
2023/11/07 06:45:59;;;;;;;;;;;;;;;15.05;nan;100877.59;5062253;28;20342;-88
2023/11/07 06:48:26;;;;;;;;;;;;;;;15.07;nan;100875.44;5068493;28;19927;-88
2023/11/07 06:50:51;;;;;;;;;;;;;;;15.07;nan;100880.81;5067161;28;19951;-89
2023/11/07 06:53:16;;;;;;;;;;;;;;;15.06;nan;100881.91;5066712;28;20404;-88
2023/11/07 06:55:42;;;;;;;;;;;;;;;15.08;nan;100882.44;5066860;28;19927;-88
2023/11/07 06:58:08;;;;;;;;;;;;;;;15.10;nan;100875.72;5064103;28;19917;-88
2023/11/07 07:00:34;;;;;;;;;;;;;;;15.15;nan;100882.16;5061966;28;19931;-88
2023/11/07 07:03:01;;;;;;;;;;;;;;;15.17;nan;100891.59;5063121;28;20306;-88
2023/11/07 07:05:27;;;;;;;;;;;;;;;15.21;nan;100884.56;5065218;28;20499;-88
2023/11/07 07:07:52;;;;;;;;;;;;;;;15.23;nan;100890.50;5072352;28;19987;-89
2023/11/07 07:10:18;;;;;;;;;;;;;;;15.21;nan;100892.66;5069295;28;20376;-88
2023/11/07 07:12:43;;;;;;;;;;;;;;;15.17;nan;100894.31;5070844;28;19920;-89
2023/11/07 07:15:10;;;;;;;;;;;;;;;15.19;nan;100894.03;5069553;28;19989;-89
2023/11/07 07:17:35;;;;;;;;;;;;;;;15.19;nan;100889.44;5065678;28;19988;-89
2023/11/07 07:20:02;;;;;;;;;;;;;;;15.20;nan;100896.44;5071995;28;19977;-88
2023/11/07 07:22:27;;;;;;;;;;;;;;;15.21;nan;100894.56;5072685;28;19927;-88
2023/11/07 07:24:54;;;;;;;;;;;;;;;15.24;nan;100897.50;5072698;28;19999;-88
2023/11/07 07:27:21;;;;;;;;;;;;;;;15.27;nan;100896.97;5070241;28;19965;-89
2023/11/07 07:29:46;;;;;;;;;;;;;;;15.27;nan;100888.88;5072913;28;19924;-89
2023/11/07 07:32:12;;;;;;;;;;;;;;;15.35;nan;100893.69;5072673;28;20469;-89
2023/11/07 07:34:40;;;;;;;;;;;;;;;15.42;nan;100893.38;5067859;28;19939;-89
2023/11/07 07:37:06;;;;;;;;;;;;;;;15.48;nan;100897.72;5068546;28;20395;-89
2023/11/07 07:39:34;;;;;;;;;;;;;;;15.55;nan;100900.91;5062627;28;19962;-90
2023/11/07 07:42:00;;;;;;;;;;;;;;;15.58;nan;100904.94;5071479;28;19916;-88
2023/11/07 07:44:26;;;;;;;;;;;;;;;15.59;nan;100898.47;5072181;28;19985;-89
2023/11/07 07:46:54;;;;;;;;;;;;;;;15.67;nan;100900.63;5068110;28;19983;-88
2023/11/07 07:49:23;;;;;;;;;;;;;;;15.71;nan;100905.19;5069903;28;19921;-89
2023/11/07 07:51:52;;;;;;;;;;;;;;;15.77;nan;100911.34;5066283;28;19924;-89
2023/11/07 07:54:22;;;;;;;;;;;;;;;15.87;nan;100910.50;5067028;28;19924;-88
2023/11/07 07:56:48;;;;;;;;;;;;;;;16.05;nan;100914.44;5068917;28;19917;-88
2023/11/07 07:59:13;;;;;;;;;;;;;;;16.16;nan;100907.91;5080965;28;20299;-88
2023/11/07 08:01:39;;;;;;;;;;;;;;;16.23;nan;100916.47;5066321;28;20589;-89
2023/11/07 08:04:05;;;;;;;;;;;;;;;16.32;nan;100920.19;5076230;28;19916;-89
2023/11/07 08:06:30;;;;;;;;;;;;;;;16.40;nan;100916.91;5070541;28;19928;-89
2023/11/07 08:08:56;;;;;;;;;;;;;;;16.49;nan;100928.69;5067222;28;19912;-90
2023/11/07 08:11:22;;;;;;;;;;;;;;;16.47;nan;100924.66;5063116;28;19929;-90
2023/11/07 08:13:47;;;;;;;;;;;;;;;16.46;nan;100921.16;5068517;28;19920;-89
2023/11/07 08:16:12;;;;;;;;;;;;;;;16.54;nan;100928.69;5069805;28;20410;-89
2023/11/07 08:18:38;;;;;;;;;;;;;;;16.65;nan;100934.00;5063290;28;19923;-88
2023/11/07 08:21:05;;;;;;;;;;;;;;;16.76;nan;100935.56;5072020;28;20536;-89
2023/11/07 08:23:30;;;;;;;;;;;;;;;16.82;nan;100929.00;5071287;28;20334;-89
2023/11/07 08:25:56;;;;;;;;;;;;;;;16.87;nan;100920.81;5068617;28;19917;-90
2023/11/07 08:28:21;;;;;;;;;;;;;;;16.88;nan;100936.00;5068531;28;19975;-88
2023/11/07 08:30:47;;;;;;;;;;;;;;;16.92;nan;100932.44;5063768;28;19920;-87
2023/11/07 08:33:12;;;;;;;;;;;;;;;17.01;nan;100924.47;5075900;28;19924;-89
2023/11/07 08:35:38;;;;;;;;;;;;;;;17.12;nan;100931.41;5065763;28;20430;-89
2023/11/07 08:38:04;;;;;;;;;;;;;;;17.18;nan;100929.44;5072004;28;20003;-88
2023/11/07 08:40:31;;;;;;;;;;;;;;;17.16;nan;100929.75;5073347;28;21386;-89
2023/11/07 08:42:56;;;;;;;;;;;;;;;17.21;nan;100932.38;5071481;28;19921;-88
2023/11/07 08:45:22;;;;;;;;;;;;;;;17.24;nan;100922.91;5069974;28;19966;-89
2023/11/07 08:47:47;;;;;;;;;;;;;;;17.40;nan;100939.75;5071135;28;20327;-89
2023/11/07 08:50:13;;;;;;;;;;;;;;;17.44;nan;100927.28;5071428;28;19924;-90
2023/11/07 08:52:42;;;;;;;;;;;;;;;17.45;nan;100934.31;5067142;28;20317;-89
2023/11/07 08:55:08;;;;;;;;;;;;;;;17.42;nan;100926.75;5066656;28;19921;-89
2023/11/07 08:57:37;;;;;;;;;;;;;;;17.49;nan;100936.13;5071426;28;20315;-91
2023/11/07 09:00:05;;;;;;;;;;;;;;;17.49;nan;100936.13;5065772;28;19916;-90
2023/11/07 09:02:31;;;;;;;;;;;;;;;17.64;nan;100937.84;5059751;28;20589;-90
2023/11/07 09:04:56;;;;;;;;;;;;;;;17.68;nan;100929.97;5070839;28;19920;-90
2023/11/07 09:07:22;;;;;;;;;;;;;;;17.73;nan;100954.28;5063228;28;19916;-90
2023/11/07 09:09:47;;;;;;;;;;;;;;;17.77;nan;100941.75;5069746;28;20423;-88
2023/11/07 09:12:13;;;;;;;;;;;;;;;17.88;nan;100939.72;5068421;28;19921;-89
2023/11/07 09:14:39;;;;;;;;;;;;;;;17.95;nan;100938.25;5071371;28;20380;-90
2023/11/07 09:17:05;;;;;;;;;;;;;;;18.07;nan;100935.13;5066221;28;19958;-89
2023/11/07 09:19:31;;;;;;;;;;;;;;;18.14;nan;100945.63;5064727;28;20561;-90
2023/11/07 09:21:56;;;;;;;;;;;;;;;18.14;nan;100941.00;5068129;28;19919;-89
2023/11/07 09:24:22;;;;;;;;;;;;;;;18.21;nan;100938.72;5062953;28;19921;-88
2023/11/07 09:26:48;;;;;;;;;;;;;;;18.31;nan;100948.59;5071866;28;20415;-90
2023/11/07 09:29:13;;;;;;;;;;;;;;;18.29;nan;100957.03;5062884;28;19917;-90
2023/11/07 09:31:38;;;;;;;;;;;;;;;18.22;nan;100951.16;5060233;28;19928;-89
2023/11/07 09:34:04;;;;;;;;;;;;;;;18.32;nan;100947.50;5071472;28;20277;-90
2023/11/07 09:36:30;;;;;;;;;;;;;;;18.52;nan;100958.03;5064587;28;19971;-88
2023/11/07 09:38:56;;;;;;;;;;;;;;;18.57;nan;100959.88;5068348;28;20010;-91
2023/11/07 09:41:21;;;;;;;;;;;;;;;18.64;nan;100942.13;5064282;28;19916;-88
2023/11/07 09:43:47;;;;;;;;;;;;;;;18.67;nan;100946.97;5063991;28;20019;-89
2023/11/07 09:46:13;;;;;;;;;;;;;;;18.75;nan;100942.75;5066501;28;19966;-90
2023/11/07 09:48:39;;;;;;;;;;;;;;;18.87;nan;100947.72;5061314;28;20304;-88
2023/11/07 09:51:04;;;;;;;;;;;;;;;18.93;nan;100954.66;5064709;28;19916;-90
2023/11/07 09:53:30;;;;;;;;;;;;;;;19.09;nan;100945.13;5070905;28;20601;-89
2023/11/07 09:55:58;;;;;;;;;;;;;;;19.20;nan;100956.59;5071768;28;19923;-89
2023/11/07 09:58:29;;;;;;;;;;;;;;;19.14;nan;100946.94;5063589;28;19916;-89
2023/11/07 10:00:58;;;;;;;;;;;;;;;19.18;nan;100942.53;5071529;28;19927;-90
2023/11/07 10:03:24;;;;;;;;;;;;;;;19.21;nan;100940.03;5063417;28;19920;-86
2023/11/07 10:05:50;;;;;;;;;;;;;;;19.26;nan;100945.34;5064922;28;19916;-87
2023/11/07 10:08:18;;;;;;;;;;;;;;;19.32;nan;100943.34;5070117;28;19926;-89
2023/11/07 10:11:03;;;;;;;;;;;;;;;19.41;nan;100935.31;5062056;28;19944;-90
2023/11/07 10:13:29;;;;;;;;;;;;;;;19.53;nan;100938.28;5070435;28;19921;-89
2023/11/07 10:16:04;;;;;;;;;;;;;;;19.64;nan;100941.66;5069904;28;19936;-90
2023/11/07 10:18:44;;;;;;;;;;;;;;;19.74;nan;100949.56;5055551;28;19996;-91
2023/11/07 10:21:11;;;;;;;;;;;;;;;19.77;nan;100943.56;5079104;28;19921;-89
2023/11/07 10:23:37;;;;;;;;;;;;;;;19.80;nan;100937.50;5060314;28;19927;-88
2023/11/07 10:26:09;;;;;;;;;;;;;;;19.88;nan;100939.50;5067299;28;19916;-89
2023/11/07 10:28:35;;;;;;;;;;;;;;;19.80;nan;100932.88;5062205;28;19920;-89
2023/11/07 10:31:00;;;;;;;;;;;;;;;19.87;nan;100938.69;5068241;28;20438;-87
2023/11/07 10:33:29;;;;;;;;;;;;;;;19.89;nan;100935.66;5065414;28;19956;-91
2023/11/07 10:35:55;;;;;;;;;;;;;;;19.99;nan;100949.03;5070620;28;19916;-90
2023/11/07 10:38:23;;;;;;;;;;;;;;;19.99;nan;100943.59;5067871;28;19926;-90
2023/11/07 10:40:49;;;;;;;;;;;;;;;20.08;nan;100936.31;5066693;28;19921;-89
2023/11/07 10:43:16;;;;;;;;;;;;;;;20.06;nan;100946.69;5069075;28;20291;-90
2023/11/07 10:45:41;;;;;;;;;;;;;;;20.14;nan;100950.63;5070967;28;19920;-90
2023/11/07 10:48:09;;;;;;;;;;;;;;;20.22;nan;100942.50;5072667;28;19924;-88
2023/11/07 10:50:35;;;;;;;;;;;;;;;20.21;nan;100948.25;5071638;28;19973;-90
2023/11/07 10:53:01;;;;;;;;;;;;;;;20.15;nan;100944.88;5075181;28;19920;-90
2023/11/07 10:55:26;;;;;;;;;;;;;;;20.09;nan;100948.00;5069191;28;19959;-90
2023/11/07 10:57:56;;;;;;;;;;;;;;;20.08;nan;100938.22;5071851;28;19927;-89
2023/11/07 11:00:24;;;;;;;;;;;;;;;20.26;nan;100947.34;5071129;28;19939;-89
2023/11/07 11:02:54;;;;;;;;;;;;;;;20.32;nan;100936.03;5073237;28;19916;-89
2023/11/07 11:05:19;;;;;;;;;;;;;;;20.25;nan;100938.38;5071931;28;19962;-86
2023/11/07 11:07:49;;;;;;;;;;;;;;;20.24;nan;100939.47;5073612;28;19917;-90
2023/11/07 11:10:15;;;;;;;;;;;;;;;20.22;nan;100939.78;5069406;28;19916;-90
2023/11/07 11:12:43;;;;;;;;;;;;;;;20.16;nan;100941.03;5070895;28;19924;-90
2023/11/07 11:15:09;;;;;;;;;;;;;;;20.05;nan;100936.13;5071216;28;19916;-90
2023/11/07 11:17:55;;;;;;;;;;;;;;;20.16;nan;100938.31;5084234;28;19916;-90
2023/11/07 11:20:22;;;;;;;;;;;;;;;20.18;nan;100938.00;5069562;28;19920;-88
2023/11/07 11:22:51;;;;;;;;;;;;;;;20.03;nan;100943.78;5072620;28;19916;-90
2023/11/07 11:25:23;;;;;;;;;;;;;;;19.86;nan;100949.88;5075915;28;19927;-90
2023/11/07 11:27:51;;;;;;;;;;;;;;;19.82;nan;100935.28;5067385;28;20394;-90
2023/11/07 11:30:16;;;;;;;;;;;;;;;19.95;nan;100939.09;5070080;28;19955;-91
2023/11/07 11:32:43;;;;;;;;;;;;;;;20.01;nan;100944.09;5072486;28;19959;-89
2023/11/07 11:35:12;;;;;;;;;;;;;;;20.04;nan;100943.47;5073458;28;19924;-90
2023/11/07 11:37:56;;;;;;;;;;;;;;;20.08;nan;100939.03;5072803;28;19924;-91
2023/11/07 11:40:42;;;;;;;;;;;;;;;20.12;nan;100936.53;5070261;28;19925;-90
2023/11/07 11:43:07;;;;;;;;;;;;;;;20.18;nan;100949.69;5062730;28;19916;-90
2023/11/07 11:45:33;;;;;;;;;;;;;;;20.17;nan;100942.63;5071481;28;19923;-90
2023/11/07 11:47:59;;;;;;;;;;;;;;;20.26;nan;100933.72;5071654;28;19927;-89
2023/11/07 11:50:25;;;;;;;;;;;;;;;20.35;nan;100940.06;5069101;28;20403;-90
2023/11/07 11:52:51;;;;;;;;;;;;;;;20.43;nan;100934.69;5070471;28;20007;-91
2023/11/07 11:55:17;;;;;;;;;;;;;;;20.54;nan;100929.81;5063857;28;20545;-90
2023/11/07 11:58:02;;;;;;;;;;;;;;;20.46;nan;100938.72;5066602;28;19917;-89
2023/11/07 12:00:38;;;;;;;;;;;;;;;20.32;nan;100927.06;5070215;28;19916;-88
2023/11/07 12:03:11;;;;;;;;;;;;;;;20.20;nan;100933.84;5065303;28;19917;-90
2023/11/07 12:05:36;;;;;;;;;;;;;;;20.17;nan;100934.47;5070769;28;19916;-91
2023/11/07 12:08:21;;;;;;;;;;;;;;;20.18;nan;100927.13;5071285;28;19917;-90
2023/11/07 12:10:54;;;;;;;;;;;;;;;20.23;nan;100935.97;5074402;28;20292;-90
2023/11/07 12:13:24;;;;;;;;;;;;;;;20.19;nan;100939.59;5065932;28;20466;-89
2023/11/07 12:15:51;;;;;;;;;;;;;;;20.05;nan;100925.25;5065877;28;19927;-89
2023/11/07 12:18:22;;;;;;;;;;;;;;;19.98;nan;100930.31;5071738;28;19927;-89
2023/11/07 12:20:50;;;;;;;;;;;;;;;19.89;nan;100927.50;5063613;28;19924;-89
2023/11/07 12:23:16;;;;;;;;;;;;;;;19.81;nan;100931.75;5064643;28;19917;-90
2023/11/07 12:25:49;;;;;;;;;;;;;;;19.75;nan;100930.28;5067106;28;19924;-90
2023/11/07 12:28:14;;;;;;;;;;;;;;;19.70;nan;100924.13;5067721;28;19917;-89
2023/11/07 12:30:39;;;;;;;;;;;;;;;19.68;nan;100929.06;5064720;28;20113;-90
2023/11/07 12:33:09;;;;;;;;;;;;;;;19.70;nan;100930.34;5074256;28;20368;-90
2023/11/07 12:35:34;;;;;;;;;;;;;;;19.65;nan;100927.75;5062516;28;20055;-86
2023/11/07 12:38:01;;;;;;;;;;;;;;;19.76;nan;100928.34;5069559;28;20011;-89
2023/11/07 12:40:27;;;;;;;;;;;;;;;19.85;nan;100932.75;5063381;28;19960;-88
2023/11/07 12:42:53;;;;;;;;;;;;;;;19.99;nan;100921.03;5070072;28;19974;-89
2023/11/07 12:45:25;;;;;;;;;;;;;;;20.26;nan;100925.56;5069159;28;19927;-90
2023/11/07 12:47:59;;;;;;;;;;;;;;;20.41;nan;100927.97;5066014;28;19917;-90
2023/11/07 12:50:34;;;;;;;;;;;;;;;20.46;nan;100933.28;5067424;28;19920;-90
2023/11/07 12:53:06;;;;;;;;;;;;;;;20.55;nan;100919.72;5064495;28;19929;-89
2023/11/07 12:55:35;;;;;;;;;;;;;;;20.70;nan;100931.03;5066308;28;20031;-91